Time;durP1;ratioP1;P1;durP2;ratioP2;P2;SDS_P1;SDS_P2;PMS_P1;PMS_P2;Temp;Humidity;BMP_temperature;BMP_pressure;BME280_temperature;BME280_humidity;BME280_pressure;Samples;Min_cycle;Max_cycle;Signal;HPM_P1;HPM_P2
2022/09/13 00:01:55;;;;;;;6.72;4.07;;;;;;;;;;5079622;28;20024;-78
2022/09/13 00:04:21;;;;;;;6.55;3.88;;;;;;;;;;5058358;28;20364;-78
2022/09/13 00:06:47;;;;;;;7.68;4.68;;;;;;;;;;5058868;28;20032;-78
2022/09/13 00:09:13;;;;;;;7.53;4.18;;;;;;;;;;5063271;28;20028;-78
2022/09/13 00:11:39;;;;;;;7.78;4.88;;;;;;;;;;5081003;28;20031;-78
2022/09/13 00:14:05;;;;;;;7.40;4.32;;;;;;;;;;5080268;28;20024;-78
2022/09/13 00:16:32;;;;;;;7.47;4.13;;;;;;;;;;5059751;28;20040;-78
2022/09/13 00:18:59;;;;;;;6.80;4.10;;;;;;;;;;5050144;28;20044;-79
2022/09/13 00:21:27;;;;;;;7.15;4.40;;;;;;;;;;5079887;28;20434;-80
2022/09/13 00:23:54;;;;;;;6.93;3.92;;;;;;;;;;5076783;28;20020;-79
2022/09/13 00:26:22;;;;;;;8.43;4.15;;;;;;;;;;5052986;28;20025;-79
2022/09/13 00:28:50;;;;;;;7.63;4.80;;;;;;;;;;5038784;28;20025;-80
2022/09/13 00:31:16;;;;;;;6.90;4.18;;;;;;;;;;5053567;28;20029;-80
2022/09/13 00:33:42;;;;;;;6.18;4.00;;;;;;;;;;5062870;28;20485;-79
2022/09/13 00:36:10;;;;;;;6.95;4.25;;;;;;;;;;5058320;28;20035;-79
2022/09/13 00:38:37;;;;;;;7.78;4.20;;;;;;;;;;5058312;28;20029;-79
2022/09/13 00:41:04;;;;;;;6.88;4.10;;;;;;;;;;5056590;28;20448;-79
2022/09/13 00:43:49;;;;;;;7.72;4.20;;;;;;;;;;5068080;28;20059;-79
2022/09/13 00:46:24;;;;;;;8.00;4.40;;;;;;;;;;5060362;28;20072;-79
2022/09/13 00:48:51;;;;;;;6.72;4.13;;;;;;;;;;5057665;28;20395;-79
2022/09/13 00:51:17;;;;;;;7.63;4.45;;;;;;;;;;5056758;28;20039;-79
2022/09/13 00:53:47;;;;;;;7.15;4.10;;;;;;;;;;5057606;28;20078;-79
2022/09/13 00:56:17;;;;;;;6.82;4.38;;;;;;;;;;5056684;28;20032;-79
2022/09/13 00:58:57;;;;;;;7.40;4.72;;;;;;;;;;5055055;28;20027;-79
2022/09/13 01:01:25;;;;;;;7.05;3.88;;;;;;;;;;5055161;28;20120;-79
2022/09/13 01:03:51;;;;;;;6.38;4.00;;;;;;;;;;5055018;28;20025;-80
2022/09/13 01:06:22;;;;;;;6.55;3.83;;;;;;;;;;5061226;28;20485;-79
2022/09/13 01:08:50;;;;;;;6.72;3.85;;;;;;;;;;5056319;28;20029;-80
2022/09/13 01:11:20;;;;;;;7.05;4.15;;;;;;;;;;5037090;28;20025;-79
2022/09/13 01:13:47;;;;;;;7.32;4.13;;;;;;;;;;5045609;28;20020;-79
2022/09/13 01:16:13;;;;;;;6.82;3.80;;;;;;;;;;5060678;28;20663;-79
2022/09/13 01:18:39;;;;;;;7.65;4.28;;;;;;;;;;5058208;28;20028;-78
2022/09/13 01:21:11;;;;;;;6.70;3.88;;;;;;;;;;5054926;28;20111;-79
2022/09/13 01:24:01;;;;;;;6.72;4.15;;;;;;;;;;5058098;28;20031;-79
2022/09/13 01:26:29;;;;;;;7.45;4.40;;;;;;;;;;5054396;28;20026;-79
2022/09/13 01:28:55;;;;;;;7.50;4.63;;;;;;;;;;5040847;28;20021;-79
2022/09/13 01:31:21;;;;;;;6.95;4.30;;;;;;;;;;5058534;28;20062;-79
2022/09/13 01:33:57;;;;;;;6.57;3.92;;;;;;;;;;5058405;28;20112;-79
2022/09/13 01:36:44;;;;;;;7.30;4.22;;;;;;;;;;5057936;28;20025;-79
2022/09/13 01:39:13;;;;;;;6.70;4.22;;;;;;;;;;5052445;28;20039;-79
2022/09/13 01:41:58;;;;;;;8.60;4.20;;;;;;;;;;5037875;28;20025;-79
2022/09/13 01:44:24;;;;;;;8.48;3.90;;;;;;;;;;5041444;28;20424;-79
2022/09/13 01:46:59;;;;;;;7.57;4.47;;;;;;;;;;5057063;28;20041;-79
2022/09/13 01:49:31;;;;;;;7.18;3.95;;;;;;;;;;5050926;28;20052;-79
2022/09/13 01:52:04;;;;;;;7.30;4.25;;;;;;;;;;5073903;28;20033;-79
2022/09/13 01:54:39;;;;;;;8.40;5.18;;;;;;;;;;5064417;28;20033;-79
2022/09/13 01:57:14;;;;;;;7.25;4.63;;;;;;;;;;5057379;28;20017;-79
2022/09/13 01:59:53;;;;;;;7.03;4.38;;;;;;;;;;5057023;28;20025;-79
2022/09/13 02:02:39;;;;;;;7.45;4.75;;;;;;;;;;5055006;28;20021;-78
2022/09/13 02:05:09;;;;;;;7.15;4.47;;;;;;;;;;5057526;28;20033;-79
2022/09/13 02:07:40;;;;;;;7.78;5.05;;;;;;;;;;5053664;28;20029;-80
2022/09/13 02:10:09;;;;;;;7.47;4.70;;;;;;;;;;5052798;28;20033;-79
2022/09/13 02:12:36;;;;;;;7.60;4.50;;;;;;;;;;5048891;28;20032;-79
2022/09/13 02:15:03;;;;;;;7.55;4.80;;;;;;;;;;5054450;28;20036;-78
2022/09/13 02:17:32;;;;;;;7.43;4.65;;;;;;;;;;5054977;28;20374;-80
2022/09/13 02:20:00;;;;;;;8.90;4.93;;;;;;;;;;5044911;28;20637;-80
2022/09/13 02:22:37;;;;;;;8.63;4.38;;;;;;;;;;5065850;28;20036;-80
2022/09/13 02:25:06;;;;;;;8.60;5.50;;;;;;;;;;5056841;28;20116;-80
2022/09/13 02:27:33;;;;;;;8.10;5.13;;;;;;;;;;5058104;28;20067;-79
2022/09/13 02:30:06;;;;;;;9.02;5.10;;;;;;;;;;5047961;28;20044;-79
2022/09/13 02:32:43;;;;;;;8.48;4.95;;;;;;;;;;5062701;28;20025;-79
2022/09/13 02:35:16;;;;;;;8.98;4.78;;;;;;;;;;5053809;28;20060;-79
2022/09/13 02:37:44;;;;;;;8.13;5.38;;;;;;;;;;5040485;28;20087;-79
2022/09/13 02:40:14;;;;;;;9.15;5.45;;;;;;;;;;5057151;28;20120;-80
2022/09/13 02:42:47;;;;;;;8.10;4.75;;;;;;;;;;5058010;28;20025;-80
2022/09/13 02:45:14;;;;;;;9.02;5.35;;;;;;;;;;5063203;28;20424;-80
2022/09/13 02:47:46;;;;;;;8.82;5.60;;;;;;;;;;5056933;28;20045;-79
2022/09/13 02:50:15;;;;;;;8.23;5.15;;;;;;;;;;5047327;28;20061;-79
2022/09/13 02:52:47;;;;;;;10.27;5.55;;;;;;;;;;5042665;28;20029;-80
2022/09/13 02:55:21;;;;;;;9.27;5.07;;;;;;;;;;5054076;28;20032;-79
2022/09/13 02:57:51;;;;;;;8.77;5.20;;;;;;;;;;5057253;28;20271;-79
2022/09/13 03:00:18;;;;;;;7.97;5.20;;;;;;;;;;5058041;28;20032;-79
2022/09/13 03:02:45;;;;;;;10.70;5.07;;;;;;;;;;5058960;28;20025;-78
2022/09/13 03:05:11;;;;;;;10.27;5.40;;;;;;;;;;5046444;28;20021;-78
2022/09/13 03:07:37;;;;;;;9.13;4.90;;;;;;;;;;5058613;28;20021;-78
2022/09/13 03:10:06;;;;;;;8.02;5.60;;;;;;;;;;5058053;28;20463;-78
2022/09/13 03:12:41;;;;;;;11.73;4.93;;;;;;;;;;5060126;28;20041;-78
2022/09/13 03:15:10;;;;;;;10.05;5.35;;;;;;;;;;5051535;28;20538;-78
2022/09/13 03:17:46;;;;;;;7.70;5.03;;;;;;;;;;5060101;28;20025;-78
2022/09/13 03:20:12;;;;;;;7.68;4.05;;;;;;;;;;5058647;28;20378;-78
2022/09/13 03:22:58;;;;;;;8.13;5.25;;;;;;;;;;5060137;28;20025;-78
2022/09/13 03:25:24;;;;;;;7.90;4.90;;;;;;;;;;5057167;28;20044;-78
2022/09/13 03:27:56;;;;;;;7.28;4.55;;;;;;;;;;5059633;28;20040;-78
2022/09/13 03:30:22;;;;;;;9.27;5.20;;;;;;;;;;5057344;28;20033;-78
2022/09/13 03:32:48;;;;;;;8.32;5.25;;;;;;;;;;5060600;28;20036;-79
2022/09/13 03:35:20;;;;;;;8.77;5.15;;;;;;;;;;5058170;28;20025;-79
2022/09/13 03:37:58;;;;;;;8.30;5.22;;;;;;;;;;5057963;28;20104;-79
2022/09/13 03:40:43;;;;;;;8.73;5.25;;;;;;;;;;5065431;28;20031;-79
2022/09/13 03:43:11;;;;;;;7.97;5.47;;;;;;;;;;5044335;28;20055;-79
2022/09/13 03:45:40;;;;;;;8.25;4.88;;;;;;;;;;5059771;28;20029;-77
2022/09/13 03:48:07;;;;;;;9.20;5.05;;;;;;;;;;5059054;28;20071;-79
2022/09/13 03:50:34;;;;;;;8.05;5.20;;;;;;;;;;5053577;28;20033;-80
2022/09/13 03:53:02;;;;;;;7.70;5.05;;;;;;;;;;5053138;28;20029;-79
2022/09/13 03:55:29;;;;;;;7.25;4.13;;;;;;;;;;5057074;28;20025;-79
2022/09/13 03:57:55;;;;;;;8.57;5.03;;;;;;;;;;5058326;28;20029;-79
2022/09/13 04:00:21;;;;;;;8.73;5.00;;;;;;;;;;5047578;28;20147;-79
2022/09/13 04:02:47;;;;;;;11.30;5.18;;;;;;;;;;5048731;28;20052;-79
2022/09/13 04:05:13;;;;;;;8.60;4.85;;;;;;;;;;5069546;28;20033;-79
2022/09/13 04:07:39;;;;;;;8.40;5.10;;;;;;;;;;5073755;28;20032;-79
2022/09/13 04:10:06;;;;;;;12.23;6.07;;;;;;;;;;5057172;28;20093;-79
2022/09/13 04:12:32;;;;;;;8.65;5.10;;;;;;;;;;5049522;28;20052;-79
2022/09/13 04:14:59;;;;;;;7.72;4.75;;;;;;;;;;5056749;28;20032;-79
2022/09/13 04:17:25;;;;;;;6.85;4.45;;;;;;;;;;5056259;28;20060;-80
2022/09/13 04:19:51;;;;;;;7.47;4.85;;;;;;;;;;5059163;28;20040;-79
2022/09/13 04:22:17;;;;;;;9.82;5.57;;;;;;;;;;5059384;28;20024;-79
2022/09/13 04:24:43;;;;;;;7.70;4.78;;;;;;;;;;5059485;28;20033;-80
2022/09/13 04:27:09;;;;;;;8.23;4.97;;;;;;;;;;5057091;28;20025;-79
2022/09/13 04:29:35;;;;;;;7.85;5.00;;;;;;;;;;5059203;28;20032;-79
2022/09/13 04:32:01;;;;;;;7.93;4.80;;;;;;;;;;5057887;28;20266;-81
2022/09/13 04:34:27;;;;;;;9.60;5.68;;;;;;;;;;5057340;28;20525;-81
2022/09/13 04:36:53;;;;;;;13.27;5.82;;;;;;;;;;5057091;28;20056;-79
2022/09/13 04:39:20;;;;;;;8.68;4.82;;;;;;;;;;5057769;28;20049;-79
2022/09/13 04:41:47;;;;;;;8.13;5.88;;;;;;;;;;5056875;28;20727;-79
2022/09/13 04:44:14;;;;;;;9.75;5.40;;;;;;;;;;5057899;28;20021;-79
2022/09/13 04:46:40;;;;;;;8.40;5.25;;;;;;;;;;5054503;28;20064;-79
2022/09/13 04:49:06;;;;;;;7.70;4.90;;;;;;;;;;5068729;28;20409;-78
2022/09/13 04:51:32;;;;;;;8.45;5.18;;;;;;;;;;5054807;28;20028;-79
2022/09/13 04:53:59;;;;;;;7.20;4.63;;;;;;;;;;5048415;28;20099;-78
2022/09/13 04:56:25;;;;;;;9.57;4.97;;;;;;;;;;5055407;28;20068;-79
2022/09/13 04:58:52;;;;;;;9.43;4.95;;;;;;;;;;5051540;28;20031;-79
2022/09/13 05:01:18;;;;;;;8.75;5.97;;;;;;;;;;5056810;28;20098;-78
2022/09/13 05:03:44;;;;;;;9.00;4.85;;;;;;;;;;5053626;28;20037;-78
2022/09/13 05:06:11;;;;;;;8.68;5.53;;;;;;;;;;5055861;28;20021;-78
2022/09/13 05:08:38;;;;;;;8.60;5.43;;;;;;;;;;5050993;28;20032;-78
2022/09/13 05:11:05;;;;;;;11.05;6.05;;;;;;;;;;5054410;28;20105;-78
2022/09/13 05:13:31;;;;;;;7.68;5.20;;;;;;;;;;5053145;28;20029;-78
2022/09/13 05:15:57;;;;;;;13.60;5.60;;;;;;;;;;5055036;28;20020;-78
2022/09/13 05:18:31;;;;;;;12.63;6.18;;;;;;;;;;5037786;28;20082;-79
2022/09/13 05:20:58;;;;;;;9.25;5.82;;;;;;;;;;5036058;28;20078;-79
2022/09/13 05:23:25;;;;;;;9.40;5.90;;;;;;;;;;5038686;28;20028;-79
2022/09/13 05:25:58;;;;;;;8.60;5.78;;;;;;;;;;5056064;28;20112;-79
2022/09/13 05:28:26;;;;;;;10.57;6.20;;;;;;;;;;5054105;28;20118;-78
2022/09/13 05:31:06;;;;;;;11.95;6.47;;;;;;;;;;5050024;28;20056;-79
2022/09/13 05:33:33;;;;;;;10.80;7.57;;;;;;;;;;5044394;28;20068;-79
2022/09/13 05:36:00;;;;;;;12.15;9.70;;;;;;;;;;5049031;28;20029;-79
2022/09/13 05:38:26;;;;;;;13.43;9.77;;;;;;;;;;5053731;28;20013;-79
2022/09/13 05:41:00;;;;;;;14.35;10.00;;;;;;;;;;5054594;28;20082;-78
2022/09/13 05:43:27;;;;;;;13.52;9.02;;;;;;;;;;5055771;28;20432;-79
2022/09/13 05:46:03;;;;;;;12.52;7.80;;;;;;;;;;5054901;28;20032;-78
2022/09/13 05:48:29;;;;;;;14.88;11.07;;;;;;;;;;5054011;28;20159;-79
2022/09/13 05:50:57;;;;;;;13.65;9.77;;;;;;;;;;5055740;28;20036;-79
2022/09/13 05:53:23;;;;;;;11.63;8.15;;;;;;;;;;5055243;28;20484;-79
2022/09/13 05:55:49;;;;;;;12.20;8.23;;;;;;;;;;5054497;28;20349;-78
2022/09/13 05:58:15;;;;;;;12.23;8.77;;;;;;;;;;5055400;28;20355;-78
2022/09/13 06:00:41;;;;;;;14.63;9.23;;;;;;;;;;5053887;28;20040;-79
2022/09/13 06:03:07;;;;;;;12.52;8.68;;;;;;;;;;5056296;28;20109;-79
2022/09/13 06:05:33;;;;;;;11.02;8.30;;;;;;;;;;5056329;28;20021;-79
2022/09/13 06:07:59;;;;;;;12.07;7.97;;;;;;;;;;5054338;28;20186;-80
2022/09/13 06:10:25;;;;;;;14.40;9.05;;;;;;;;;;5055580;28;20029;-78
2022/09/13 06:12:51;;;;;;;10.52;7.47;;;;;;;;;;5054598;28;20043;-78
2022/09/13 06:15:17;;;;;;;10.82;6.57;;;;;;;;;;5054819;28;20028;-79
2022/09/13 06:17:43;;;;;;;12.00;7.10;;;;;;;;;;5042947;28;20025;-78
2022/09/13 06:20:09;;;;;;;10.40;6.95;;;;;;;;;;5055226;28;20039;-78
2022/09/13 06:22:35;;;;;;;11.38;7.22;;;;;;;;;;5055844;28;20550;-79
2022/09/13 06:25:01;;;;;;;10.45;7.10;;;;;;;;;;5055689;28;20029;-79
2022/09/13 06:27:30;;;;;;;13.02;7.50;;;;;;;;;;5053854;28;20037;-79
2022/09/13 06:29:56;;;;;;;11.05;7.60;;;;;;;;;;5055735;28;20417;-78
2022/09/13 06:32:22;;;;;;;12.38;7.47;;;;;;;;;;5055054;28;20489;-79
2022/09/13 06:34:48;;;;;;;13.25;6.93;;;;;;;;;;5055660;28;20029;-79
2022/09/13 06:37:14;;;;;;;11.50;8.10;;;;;;;;;;5054390;28;21328;-79
2022/09/13 06:39:40;;;;;;;11.30;7.70;;;;;;;;;;5055294;28;20082;-79
2022/09/13 06:42:06;;;;;;;10.27;7.10;;;;;;;;;;5055995;28;20029;-78
2022/09/13 06:44:32;;;;;;;11.30;7.30;;;;;;;;;;5054514;28;20028;-78
2022/09/13 06:46:58;;;;;;;11.20;7.07;;;;;;;;;;5056252;28;20114;-79
2022/09/13 06:49:24;;;;;;;11.73;7.18;;;;;;;;;;5055794;28;20036;-79
2022/09/13 06:51:50;;;;;;;13.25;8.23;;;;;;;;;;5056688;28;20032;-79
2022/09/13 06:54:16;;;;;;;13.13;7.65;;;;;;;;;;5056153;28;20065;-79
2022/09/13 06:56:42;;;;;;;13.02;7.85;;;;;;;;;;5045787;28;20034;-79
2022/09/13 06:59:09;;;;;;;11.05;7.85;;;;;;;;;;5054197;28;20053;-79
2022/09/13 07:01:38;;;;;;;12.73;8.82;;;;;;;;;;5055081;28;20025;-79
2022/09/13 07:04:07;;;;;;;12.13;9.23;;;;;;;;;;5055579;28;20025;-79
2022/09/13 07:06:35;;;;;;;12.15;8.65;;;;;;;;;;5055515;28;20427;-79
2022/09/13 07:09:02;;;;;;;11.88;7.95;;;;;;;;;;5056887;28;20033;-78
2022/09/13 07:11:35;;;;;;;12.88;8.00;;;;;;;;;;5055644;28;20640;-79
2022/09/13 07:14:01;;;;;;;10.98;7.70;;;;;;;;;;5057509;28;20029;-79
2022/09/13 07:16:31;;;;;;;10.57;7.65;;;;;;;;;;5057688;28;20044;-79
2022/09/13 07:18:57;;;;;;;10.48;6.95;;;;;;;;;;5057488;28;20307;-80
2022/09/13 07:21:24;;;;;;;11.20;7.53;;;;;;;;;;5042425;28;20018;-80
2022/09/13 07:23:51;;;;;;;11.35;7.15;;;;;;;;;;5057780;28;20104;-80
2022/09/13 07:26:17;;;;;;;8.60;6.53;;;;;;;;;;5060978;28;20033;-80
2022/09/13 07:28:44;;;;;;;9.75;7.10;;;;;;;;;;5045719;28;20041;-80
2022/09/13 07:31:20;;;;;;;10.88;6.65;;;;;;;;;;5040245;28;20034;-80
2022/09/13 07:33:47;;;;;;;11.52;7.32;;;;;;;;;;5038970;28;20113;-80
2022/09/13 07:36:13;;;;;;;10.63;7.50;;;;;;;;;;5039073;28;20044;-80
2022/09/13 07:38:41;;;;;;;10.77;7.95;;;;;;;;;;5048704;28;20082;-79
2022/09/13 07:41:09;;;;;;;10.98;7.38;;;;;;;;;;5058129;28;20037;-79
2022/09/13 07:43:36;;;;;;;10.48;6.78;;;;;;;;;;5062068;28;20104;-81
2022/09/13 07:46:03;;;;;;;12.20;7.30;;;;;;;;;;5062152;28;20028;-80
2022/09/13 07:48:30;;;;;;;12.07;6.60;;;;;;;;;;5060857;28;20037;-80
2022/09/13 07:50:57;;;;;;;9.70;7.18;;;;;;;;;;5060861;28;20025;-81
2022/09/13 07:53:23;;;;;;;9.25;6.93;;;;;;;;;;5063013;28;20043;-79
2022/09/13 07:55:49;;;;;;;9.90;7.43;;;;;;;;;;5062111;28;20044;-81
2022/09/13 07:58:15;;;;;;;11.23;6.35;;;;;;;;;;5060236;28;20442;-80
2022/09/13 08:00:41;;;;;;;11.75;6.78;;;;;;;;;;5061134;28;20021;-81
2022/09/13 08:03:08;;;;;;;10.70;7.07;;;;;;;;;;5059989;28;20385;-81
2022/09/13 08:05:38;;;;;;;10.20;7.07;;;;;;;;;;5059833;28;20032;-79
2022/09/13 08:08:06;;;;;;;11.57;7.40;;;;;;;;;;5058504;28;20427;-80
2022/09/13 08:10:32;;;;;;;13.35;6.88;;;;;;;;;;5058360;28;20028;-80
2022/09/13 08:12:58;;;;;;;10.13;7.63;;;;;;;;;;5057381;28;20036;-80
2022/09/13 08:15:24;;;;;;;9.75;6.80;;;;;;;;;;5056321;28;20029;-78
2022/09/13 08:17:51;;;;;;;12.23;7.57;;;;;;;;;;5057594;28;20391;-79
2022/09/13 08:20:17;;;;;;;9.32;7.10;;;;;;;;;;5057870;28;20052;-79
2022/09/13 08:22:43;;;;;;;12.45;7.38;;;;;;;;;;5057505;28;20059;-78
2022/09/13 08:25:09;;;;;;;9.73;7.28;;;;;;;;;;5057404;28;20021;-80
2022/09/13 08:27:35;;;;;;;11.77;7.57;;;;;;;;;;5057344;28;20075;-80
2022/09/13 08:30:01;;;;;;;18.38;7.53;;;;;;;;;;5055987;28;20031;-79
2022/09/13 08:32:27;;;;;;;10.13;5.72;;;;;;;;;;5056998;28;20495;-80
2022/09/13 08:34:53;;;;;;;10.85;5.78;;;;;;;;;;5056224;28;20025;-79
2022/09/13 08:37:19;;;;;;;9.25;5.93;;;;;;;;;;5041893;28;20500;-80
2022/09/13 08:39:46;;;;;;;7.88;5.18;;;;;;;;;;5059031;28;20025;-82
2022/09/13 08:42:21;;;;;;;8.45;4.90;;;;;;;;;;5058707;28;20029;-80
2022/09/13 08:44:54;;;;;;;7.50;5.93;;;;;;;;;;5058817;28;20074;-80
2022/09/13 08:47:23;;;;;;;10.13;5.95;;;;;;;;;;5052173;28;20045;-80
2022/09/13 08:49:59;;;;;;;8.18;5.93;;;;;;;;;;5040261;28;20021;-79
2022/09/13 08:52:40;;;;;;;9.23;6.00;;;;;;;;;;5038059;28;20036;-80
2022/09/13 08:55:27;;;;;;;8.25;6.00;;;;;;;;;;5057437;28;20048;-81
2022/09/13 08:57:59;;;;;;;8.80;6.35;;;;;;;;;;5058083;28;20025;-79
2022/09/13 09:00:31;;;;;;;9.02;6.50;;;;;;;;;;5058525;28;20021;-80
2022/09/13 09:03:03;;;;;;;10.25;7.10;;;;;;;;;;5058119;28;20024;-80
2022/09/13 09:05:31;;;;;;;9.23;6.82;;;;;;;;;;5058468;28;20033;-80
2022/09/13 09:08:11;;;;;;;11.02;7.60;;;;;;;;;;5059330;28;20029;-80
2022/09/13 09:10:48;;;;;;;10.52;6.95;;;;;;;;;;5055873;28;20036;-80
2022/09/13 09:13:21;;;;;;;9.32;6.22;;;;;;;;;;5056268;28;20029;-79
2022/09/13 09:15:52;;;;;;;8.73;6.47;;;;;;;;;;5054335;28;20439;-80
2022/09/13 09:18:22;;;;;;;11.68;8.02;;;;;;;;;;5055370;28;20080;-80
2022/09/13 09:20:49;;;;;;;8.32;6.22;;;;;;;;;;5055856;28;20484;-80
2022/09/13 09:23:17;;;;;;;8.52;5.70;;;;;;;;;;5056607;28;20060;-79
2022/09/13 09:25:43;;;;;;;8.68;6.35;;;;;;;;;;5056952;28;20060;-79
2022/09/13 09:28:14;;;;;;;11.57;6.53;;;;;;;;;;5057733;28;20033;-80
2022/09/13 09:30:43;;;;;;;9.95;5.90;;;;;;;;;;5055453;28;20052;-79
2022/09/13 09:33:19;;;;;;;7.97;5.75;;;;;;;;;;5055602;28;20025;-80
2022/09/13 09:35:48;;;;;;;7.38;5.95;;;;;;;;;;5035390;28;20022;-80
2022/09/13 09:38:14;;;;;;;8.18;5.63;;;;;;;;;;5046652;28;20040;-81
2022/09/13 09:40:40;;;;;;;7.80;5.13;;;;;;;;;;5054531;28;20036;-80
2022/09/13 09:43:28;;;;;;;9.43;5.13;;;;;;;;;;5053299;28;20095;-79
2022/09/13 09:45:55;;;;;;;9.02;6.13;;;;;;;;;;5046714;28;20370;-80
2022/09/13 09:48:23;;;;;;;10.00;6.28;;;;;;;;;;5055423;28;21056;-79
2022/09/13 09:50:51;;;;;;;7.20;5.10;;;;;;;;;;5059094;28;20093;-79
2022/09/13 09:53:27;;;;;;;6.22;4.93;;;;;;;;;;5053847;28;20029;-79
2022/09/13 09:55:53;;;;;;;6.93;4.80;;;;;;;;;;5058742;28;20029;-79
2022/09/13 09:58:36;;;;;;;6.80;4.70;;;;;;;;;;5056612;28;20025;-80
2022/09/13 10:01:02;;;;;;;6.43;4.28;;;;;;;;;;5051104;28;20085;-80
2022/09/13 10:03:32;;;;;;;6.65;3.90;;;;;;;;;;5057937;28;20060;-80
2022/09/13 10:06:12;;;;;;;9.05;4.28;;;;;;;;;;5057313;28;20513;-80
2022/09/13 10:08:40;;;;;;;7.25;4.75;;;;;;;;;;5058687;28;20028;-80
2022/09/13 10:11:07;;;;;;;7.43;4.68;;;;;;;;;;5058713;28;20036;-80
2022/09/13 10:13:33;;;;;;;7.28;5.05;;;;;;;;;;5057709;28;20039;-81
2022/09/13 10:16:01;;;;;;;6.63;4.30;;;;;;;;;;5054804;28;20029;-79
2022/09/13 10:18:28;;;;;;;6.78;4.28;;;;;;;;;;5057516;28;20018;-79
2022/09/13 10:21:05;;;;;;;7.30;4.97;;;;;;;;;;5055245;28;20021;-80
2022/09/13 10:23:32;;;;;;;8.20;4.88;;;;;;;;;;5056017;28;20060;-79
2022/09/13 10:26:09;;;;;;;6.10;4.40;;;;;;;;;;5055988;28;20084;-79
2022/09/13 10:28:41;;;;;;;6.35;4.45;;;;;;;;;;5057489;28;20025;-79
2022/09/13 10:31:09;;;;;;;6.72;4.60;;;;;;;;;;5052098;28;20142;-79
2022/09/13 10:33:43;;;;;;;7.07;5.03;;;;;;;;;;5053178;28;20032;-80
2022/09/13 10:36:15;;;;;;;8.93;5.15;;;;;;;;;;5037779;28;20018;-79
2022/09/13 10:38:47;;;;;;;6.80;4.90;;;;;;;;;;5037638;28;20100;-79
2022/09/13 10:41:21;;;;;;;6.70;5.00;;;;;;;;;;5037728;28;20018;-79
2022/09/13 10:43:48;;;;;;;6.72;4.72;;;;;;;;;;5055859;28;20056;-79
2022/09/13 10:46:21;;;;;;;5.85;3.92;;;;;;;;;;5041441;28;20045;-79
2022/09/13 10:48:57;;;;;;;8.05;4.35;;;;;;;;;;5043427;28;20017;-80
2022/09/13 10:51:26;;;;;;;7.80;5.00;;;;;;;;;;5057988;28;20082;-80
2022/09/13 10:54:09;;;;;;;6.70;4.53;;;;;;;;;;5061470;28;20120;-79
2022/09/13 10:56:35;;;;;;;7.22;4.65;;;;;;;;;;5060292;28;20013;-78
2022/09/13 10:59:34;;;;;;;7.75;4.95;;;;;;;;;;5060501;28;20040;-80
2022/09/13 11:02:05;;;;;;;6.40;4.40;;;;;;;;;;5077266;28;20499;-80
2022/09/13 11:04:43;;;;;;;5.60;4.00;;;;;;;;;;5075439;28;20037;-81
2022/09/13 11:07:21;;;;;;;6.72;4.55;;;;;;;;;;5075393;28;20033;-81
2022/09/13 11:09:56;;;;;;;6.97;4.60;;;;;;;;;;5074313;28;20043;-80
2022/09/13 11:12:31;;;;;;;7.97;4.55;;;;;;;;;;5074319;28;20127;-80
2022/09/13 11:15:03;;;;;;;9.35;5.35;;;;;;;;;;5075325;28;20086;-80
2022/09/13 11:17:29;;;;;;;7.93;5.50;;;;;;;;;;5074746;28;20124;-80
2022/09/13 11:20:00;;;;;;;8.20;4.63;;;;;;;;;;5074327;28;20484;-81
2022/09/13 11:22:34;;;;;;;6.90;5.07;;;;;;;;;;5074632;28;20061;-80
2022/09/13 11:25:01;;;;;;;7.10;4.63;;;;;;;;;;5073854;28;20112;-80
2022/09/13 11:27:33;;;;;;;5.80;3.83;;;;;;;;;;5076461;28;20039;-79
2022/09/13 11:29:59;;;;;;;;;;;;;;;;;;5078574;28;20500;-79
2022/09/13 11:32:25;;;;;;;6.68;4.13;;;;;;;;;;5079032;28;19951;-80
2022/09/13 11:35:02;;;;;;;8.85;4.47;;;;;;;;;;5079314;28;20111;-80
2022/09/13 11:37:35;;;;;;;9.20;4.80;;;;;;;;;;5071528;28;20063;-79
2022/09/13 11:40:20;;;;;;;5.97;3.78;;;;;;;;;;5059108;28;20029;-80
2022/09/13 11:43:05;;;;;;;5.97;3.70;;;;;;;;;;5055965;28;20040;-80
2022/09/13 11:45:34;;;;;;;7.80;3.63;;;;;;;;;;5056107;28;20035;-80
2022/09/13 11:48:06;;;;;;;10.35;3.65;;;;;;;;;;5055882;28;20059;-81
2022/09/13 11:50:51;;;;;;;7.10;3.67;;;;;;;;;;5055748;28;20071;-81
2022/09/13 11:53:35;;;;;;;7.15;3.53;;;;;;;;;;5055944;28;20108;-80
2022/09/13 11:56:08;;;;;;;5.90;4.03;;;;;;;;;;5053642;28;20033;-80
2022/09/13 11:58:36;;;;;;;6.38;4.35;;;;;;;;;;5055951;28;20025;-80
2022/09/13 12:01:08;;;;;;;6.20;3.63;;;;;;;;;;5055093;28;20121;-82
2022/09/13 12:03:34;;;;;;;8.17;3.73;;;;;;;;;;5055191;28;20039;-81
2022/09/13 12:06:15;;;;;;;6.25;3.70;;;;;;;;;;5055744;28;20332;-80
2022/09/13 12:08:49;;;;;;;6.00;3.47;;;;;;;;;;5055554;28;20124;-80
2022/09/13 12:11:23;;;;;;;7.57;4.03;;;;;;;;;;5055465;28;20056;-80
2022/09/13 12:13:57;;;;;;;7.30;3.80;;;;;;;;;;5056052;28;20488;-80
2022/09/13 12:16:31;;;;;;;11.32;3.83;;;;;;;;;;5054160;28;20021;-80
2022/09/13 12:18:59;;;;;;;7.90;3.78;;;;;;;;;;5055779;28;20037;-81
2022/09/13 12:21:34;;;;;;;7.25;4.10;;;;;;;;;;5050280;28;20037;-79
2022/09/13 12:24:01;;;;;;;7.25;4.07;;;;;;;;;;5055999;28;20025;-80
2022/09/13 12:26:33;;;;;;;6.10;3.92;;;;;;;;;;5055175;28;20021;-80
2022/09/13 12:29:01;;;;;;;10.35;5.13;;;;;;;;;;5056747;28;20025;-79
2022/09/13 12:31:28;;;;;;;6.32;3.65;;;;;;;;;;5044029;28;20558;-79
2022/09/13 12:33:54;;;;;;;6.22;3.38;;;;;;;;;;5037897;28;20492;-78
2022/09/13 12:36:20;;;;;;;5.88;3.83;;;;;;;;;;5047987;28;20055;-78
2022/09/13 12:39:01;;;;;;;5.95;3.85;;;;;;;;;;5057943;28;20045;-81
2022/09/13 12:41:33;;;;;;;9.57;4.32;;;;;;;;;;5059512;28;20358;-80
2022/09/13 12:44:15;;;;;;;5.70;3.65;;;;;;;;;;5059893;28;20070;-80
2022/09/13 12:46:56;;;;;;;6.88;3.58;;;;;;;;;;5057485;28;20084;-80
2022/09/13 12:49:28;;;;;;;6.95;3.67;;;;;;;;;;5057919;28;20441;-80
2022/09/13 12:51:57;;;;;;;7.03;3.78;;;;;;;;;;5052798;28;20027;-80
2022/09/13 12:54:23;;;;;;;6.40;3.72;;;;;;;;;;5049524;28;20431;-81
2022/09/13 12:56:49;;;;;;;5.68;3.28;;;;;;;;;;5051897;28;20021;-81
2022/09/13 12:59:21;;;;;;;7.40;3.85;;;;;;;;;;5057462;28;20021;-81
2022/09/13 13:01:49;;;;;;;6.78;3.33;;;;;;;;;;5052623;28;20033;-81
2022/09/13 13:04:26;;;;;;;6.60;3.80;;;;;;;;;;5058098;28;20489;-79
2022/09/13 13:06:54;;;;;;;5.78;3.60;;;;;;;;;;5057748;28;20025;-80
2022/09/13 13:09:41;;;;;;;5.63;3.20;;;;;;;;;;5057940;28;20021;-79
2022/09/13 13:12:08;;;;;;;7.10;4.00;;;;;;;;;;5052151;28;20028;-80
2022/09/13 13:14:37;;;;;;;5.55;3.55;;;;;;;;;;5057933;28;20052;-79
2022/09/13 13:17:22;;;;;;;8.23;3.80;;;;;;;;;;5058798;28;20120;-79
2022/09/13 13:19:49;;;;;;;7.63;3.88;;;;;;;;;;5057801;28;20032;-78
2022/09/13 13:22:34;;;;;;;7.78;3.58;;;;;;;;;;5055317;28;20043;-79
2022/09/13 13:25:20;;;;;;;7.15;3.92;;;;;;;;;;5056703;28;20033;-78
2022/09/13 13:27:50;;;;;;;9.73;3.67;;;;;;;;;;5057171;28;20060;-79
2022/09/13 13:30:31;;;;;;;6.10;3.55;;;;;;;;;;5059588;28;20032;-79
2022/09/13 13:33:12;;;;;;;6.88;4.00;;;;;;;;;;5057701;28;20033;-79
2022/09/13 13:35:38;;;;;;;5.78;3.60;;;;;;;;;;5054374;28;20410;-79
2022/09/13 13:38:34;;;;;;;5.95;3.60;;;;;;;;;;5053822;28;20032;-81
2022/09/13 13:41:08;;;;;;;5.68;3.72;;;;;;;;;;5040146;28;20040;-80
2022/09/13 13:43:34;;;;;;;7.00;3.50;;;;;;;;;;5055151;28;20033;-80
2022/09/13 13:46:12;;;;;;;5.32;3.65;;;;;;;;;;5057152;28;20179;-80
2022/09/13 13:48:40;;;;;;;5.55;3.47;;;;;;;;;;5054657;28;20098;-81
2022/09/13 13:51:17;;;;;;;7.43;4.03;;;;;;;;;;5056252;28;20095;-79
2022/09/13 13:53:45;;;;;;;6.65;3.35;;;;;;;;;;5058817;28;20033;-81
2022/09/13 13:56:20;;;;;;;5.60;3.47;;;;;;;;;;5058520;28;20036;-81
2022/09/13 13:58:51;;;;;;;6.53;3.60;;;;;;;;;;5056341;28;20017;-79
2022/09/13 14:01:20;;;;;;;7.65;4.05;;;;;;;;;;5055827;28;20028;-80
2022/09/13 14:03:52;;;;;;;6.15;3.40;;;;;;;;;;5055283;28;20036;-80
2022/09/13 14:06:38;;;;;;;6.63;3.42;;;;;;;;;;5057745;28;20374;-80
2022/09/13 14:09:05;;;;;;;7.18;3.40;;;;;;;;;;5067470;28;21264;-80
2022/09/13 14:11:55;;;;;;;5.93;3.25;;;;;;;;;;5056872;28;20044;-80
2022/09/13 14:14:24;;;;;;;5.32;3.30;;;;;;;;;;5056112;28;20117;-80
2022/09/13 14:16:53;;;;;;;7.25;3.78;;;;;;;;;;5060993;28;20028;-81
2022/09/13 14:19:25;;;;;;;6.75;3.30;;;;;;;;;;5055892;28;20024;-81
2022/09/13 14:22:04;;;;;;;6.47;4.03;;;;;;;;;;5064484;28;20018;-81
2022/09/13 14:24:36;;;;;;;5.78;3.63;;;;;;;;;;5066002;28;20449;-81
2022/09/13 14:27:02;;;;;;;5.68;3.28;;;;;;;;;;5065754;28;20021;-81
2022/09/13 14:29:28;;;;;;;7.32;3.38;;;;;;;;;;5065763;28;20130;-81
2022/09/13 14:32:00;;;;;;;5.45;3.10;;;;;;;;;;5062200;28;20029;-80
2022/09/13 14:34:31;;;;;;;5.38;3.33;;;;;;;;;;5063616;28;20441;-80
2022/09/13 14:36:59;;;;;;;5.82;3.72;;;;;;;;;;5064720;28;20029;-81
2022/09/13 14:39:26;;;;;;;6.05;3.00;;;;;;;;;;5064691;28;20028;-81
2022/09/13 14:42:21;;;;;;;6.57;3.33;;;;;;;;;;5065522;28;20563;-81
2022/09/13 14:44:48;;;;;;;6.38;3.60;;;;;;;;;;5062315;28;20064;-81
2022/09/13 14:47:25;;;;;;;5.78;3.20;;;;;;;;;;5064413;28;20049;-81
2022/09/13 14:50:00;;;;;;;6.15;3.63;;;;;;;;;;5064488;28;20045;-81
2022/09/13 14:52:35;;;;;;;5.60;3.40;;;;;;;;;;5061613;28;20615;-81
2022/09/13 14:55:04;;;;;;;4.55;3.03;;;;;;;;;;5058305;28;20048;-81
2022/09/13 14:57:34;;;;;;;5.03;3.33;;;;;;;;;;5052805;28;20025;-80
2022/09/13 15:00:04;;;;;;;6.10;3.30;;;;;;;;;;5059919;28;20037;-81